createdAt,value
2017-09-26T00:00:14.234Z,13.80
2017-09-26T00:02:42.659Z,13.77
2017-09-26T00:05:11.179Z,13.74
2017-09-26T00:07:39.664Z,13.75
2017-09-26T00:10:08.116Z,13.74
2017-09-26T00:12:37.317Z,13.75
2017-09-26T00:15:06.527Z,13.72
2017-09-26T00:17:35.842Z,13.74
2017-09-26T00:20:04.277Z,13.70
2017-09-26T00:22:32.737Z,13.72
2017-09-26T00:25:01.196Z,13.75
2017-09-26T00:27:29.652Z,13.74
2017-09-26T00:29:58.852Z,13.71
2017-09-26T00:32:28.058Z,13.70
2017-09-26T00:34:56.487Z,13.69
2017-09-26T00:37:24.945Z,13.71
2017-09-26T00:39:53.380Z,13.69
2017-09-26T00:42:22.660Z,13.72
2017-09-26T00:44:51.206Z,13.68
2017-09-26T00:47:19.783Z,13.76
2017-09-26T00:49:48.215Z,13.77
2017-09-26T00:52:16.664Z,13.78
2017-09-26T00:54:45.115Z,13.82
2017-09-26T00:57:13.556Z,13.83
2017-09-26T00:59:42.016Z,13.81
2017-09-26T01:02:10.443Z,13.83
2017-09-26T01:04:39.655Z,13.84
2017-09-26T01:07:12.860Z,13.82
2017-09-26T01:09:41.303Z,13.81
2017-09-26T01:12:09.828Z,13.80
2017-09-26T01:14:38.276Z,13.80
2017-09-26T01:17:07.708Z,13.83
2017-09-26T01:19:36.180Z,13.87
2017-09-26T01:22:04.607Z,13.89
2017-09-26T01:24:33.061Z,13.92
2017-09-26T01:27:01.503Z,13.93
2017-09-26T01:29:30.703Z,13.97
2017-09-26T01:32:00.040Z,14.02
2017-09-26T01:34:28.463Z,14.09
2017-09-26T01:36:56.923Z,14.12
2017-09-26T01:39:25.360Z,14.14
2017-09-26T01:41:54.683Z,14.16
2017-09-26T01:44:23.163Z,14.17
2017-09-26T01:46:51.608Z,14.18
2017-09-26T01:49:20.818Z,14.20
2017-09-26T01:51:50.031Z,14.20
2017-09-26T01:54:18.458Z,14.22
2017-09-26T01:56:48.715Z,14.27
2017-09-26T01:59:18.828Z,14.23
2017-09-26T02:01:47.347Z,14.29
2017-09-26T02:04:15.843Z,14.34
2017-09-26T02:06:44.416Z,14.36
2017-09-26T02:09:12.852Z,14.33
2017-09-26T02:11:41.375Z,14.32
2017-09-26T02:14:09.861Z,14.34
2017-09-26T02:16:38.290Z,14.33
2017-09-26T02:19:06.748Z,14.31
2017-09-26T02:21:35.203Z,14.34
2017-09-26T02:24:03.651Z,14.35
2017-09-26T02:26:32.091Z,14.37
2017-09-26T02:29:00.651Z,14.37
2017-09-26T02:31:29.079Z,14.38
2017-09-26T02:33:57.535Z,14.37
2017-09-26T02:36:25.994Z,14.37
2017-09-26T02:38:54.476Z,14.37
2017-09-26T02:41:22.971Z,14.40
2017-09-26T02:43:51.413Z,14.37
2017-09-26T02:46:20.637Z,14.38
2017-09-26T02:48:49.071Z,14.38
2017-09-26T02:51:18.301Z,14.38
2017-09-26T02:53:47.505Z,14.44
2017-09-26T02:56:15.965Z,14.44
2017-09-26T02:58:45.199Z,14.45
2017-09-26T03:01:13.646Z,14.47
2017-09-26T03:03:42.879Z,14.45
2017-09-26T03:06:11.368Z,14.43
2017-09-26T03:08:39.803Z,14.43
2017-09-26T03:11:08.244Z,14.39
2017-09-26T03:13:36.711Z,14.40
2017-09-26T03:16:05.155Z,14.39
2017-09-26T03:18:34.380Z,14.36
2017-09-26T03:21:02.808Z,14.34
2017-09-26T03:23:31.263Z,14.33
2017-09-26T03:25:59.705Z,14.34
2017-09-26T03:28:28.927Z,14.33
2017-09-26T03:30:57.360Z,14.34
2017-09-26T03:33:25.891Z,14.32
2017-09-26T03:35:54.319Z,14.32
2017-09-26T03:38:22.756Z,14.32
2017-09-26T03:40:51.208Z,14.33
2017-09-26T03:43:20.440Z,14.31
2017-09-26T03:45:48.891Z,14.33
2017-09-26T03:48:18.096Z,14.30
2017-09-26T03:50:47.414Z,14.24
2017-09-26T03:53:15.839Z,14.27
2017-09-26T03:55:44.287Z,14.28
2017-09-26T03:58:12.720Z,14.26
2017-09-26T04:00:41.184Z,14.23
2017-09-26T04:03:09.620Z,14.20
2017-09-26T04:05:38.208Z,14.21
2017-09-26T04:08:06.639Z,14.21
2017-09-26T04:10:35.579Z,14.16
2017-09-26T04:13:04.036Z,14.18
2017-09-26T04:15:33.268Z,14.14
2017-09-26T04:18:01.722Z,14.14
2017-09-26T04:20:30.932Z,14.12
2017-09-26T04:22:59.431Z,14.13
2017-09-26T04:25:27.868Z,14.10
2017-09-26T04:27:56.387Z,14.09
2017-09-26T04:30:24.881Z,14.12
2017-09-26T04:32:53.332Z,14.10
2017-09-26T04:35:22.543Z,14.08
2017-09-26T04:37:51.050Z,14.09
2017-09-26T04:40:19.510Z,14.05
2017-09-26T04:42:47.980Z,14.04
2017-09-26T04:45:17.176Z,14.03
2017-09-26T04:47:46.376Z,14.07
2017-09-26T04:50:15.590Z,14.04
2017-09-26T04:52:44.032Z,14.03
2017-09-26T04:55:12.555Z,14.04
2017-09-26T04:57:40.988Z,14.04
2017-09-26T05:00:09.444Z,14.08
2017-09-26T05:02:37.880Z,14.11
2017-09-26T05:05:07.108Z,14.16
2017-09-26T05:07:35.551Z,14.15
2017-09-26T05:10:04.776Z,14.15
2017-09-26T05:12:33.211Z,14.18
2017-09-26T05:15:01.688Z,14.12
2017-09-26T05:17:30.128Z,14.11
2017-09-26T05:19:58.612Z,14.16
2017-09-26T05:22:27.092Z,14.16
2017-09-26T05:24:55.520Z,14.17
2017-09-26T05:27:23.984Z,14.13
2017-09-26T05:29:52.420Z,14.15
2017-09-26T05:32:21.639Z,14.12
2017-09-26T05:34:50.087Z,14.18
2017-09-26T05:37:19.334Z,14.10
2017-09-26T05:39:47.769Z,14.08
2017-09-26T05:42:16.962Z,14.02
2017-09-26T05:44:46.286Z,14.02
2017-09-26T05:47:14.707Z,14.03
2017-09-26T05:49:43.146Z,14.11
2017-09-26T05:52:11.640Z,14.04
2017-09-26T05:54:40.097Z,14.05
2017-09-26T05:57:09.301Z,14.07
2017-09-26T05:59:38.619Z,14.12
2017-09-26T06:02:07.042Z,14.08
2017-09-26T06:04:35.583Z,14.12
2017-09-26T06:07:04.020Z,14.15
2017-09-26T06:09:32.546Z,14.15
2017-09-26T06:12:00.967Z,14.16
2017-09-26T06:14:29.421Z,14.17
2017-09-26T06:16:57.865Z,14.21
2017-09-26T06:19:27.186Z,14.25
2017-09-26T06:21:55.680Z,14.27
2017-09-26T06:24:24.102Z,14.25
2017-09-26T06:26:52.547Z,14.28
2017-09-26T06:29:20.991Z,14.29
2017-09-26T06:31:50.208Z,14.27
2017-09-26T06:34:18.649Z,14.32
2017-09-26T06:36:47.091Z,14.29
2017-09-26T06:39:15.515Z,14.33
2017-09-26T06:41:43.969Z,14.32
2017-09-26T06:44:12.433Z,14.31
2017-09-26T06:46:40.874Z,14.33
2017-09-26T06:49:10.128Z,14.35
2017-09-26T06:51:38.640Z,14.33
2017-09-26T06:54:08.428Z,14.33
2017-09-26T06:56:36.888Z,14.33
2017-09-26T06:59:05.331Z,14.36
2017-09-26T07:01:35.060Z,14.35
2017-09-26T07:04:03.514Z,14.33
2017-09-26T07:06:31.943Z,14.38
2017-09-26T07:09:00.381Z,14.35
2017-09-26T07:11:28.807Z,14.32
2017-09-26T07:13:57.255Z,14.32
2017-09-26T07:16:26.456Z,14.31
2017-09-26T07:18:55.672Z,14.31
2017-09-26T07:21:24.108Z,14.29
2017-09-26T07:23:52.587Z,14.30
2017-09-26T07:26:21.021Z,14.35
2017-09-26T07:28:49.457Z,14.33
2017-09-26T07:31:17.918Z,14.38
2017-09-26T07:33:46.348Z,14.35
2017-09-26T07:36:15.672Z,14.39
2017-09-26T07:38:44.119Z,14.48
2017-09-26T07:41:13.456Z,14.47
2017-09-26T07:43:41.930Z,14.52
2017-09-26T07:46:10.372Z,14.52
2017-09-26T07:48:38.808Z,14.52
2017-09-26T07:51:07.291Z,14.58
2017-09-26T07:53:35.719Z,14.55
2017-09-26T07:56:04.201Z,14.50
2017-09-26T07:58:32.706Z,14.60
2017-09-26T08:01:02.163Z,14.69
2017-09-26T08:03:31.277Z,14.79
2017-09-26T08:06:00.461Z,14.68
2017-09-26T08:08:29.799Z,14.82
2017-09-26T08:10:58.990Z,14.85
2017-09-26T08:13:28.216Z,14.74
2017-09-26T08:15:56.648Z,14.91
2017-09-26T08:18:25.100Z,15.01
2017-09-26T08:20:53.528Z,15.03
2017-09-26T08:23:21.988Z,15.10
2017-09-26T08:25:50.424Z,15.18
2017-09-26T08:28:18.874Z,15.21
2017-09-26T08:30:48.071Z,15.30
2017-09-26T08:33:17.321Z,15.44
2017-09-26T08:35:45.787Z,15.25
2017-09-26T08:38:14.219Z,15.21
2017-09-26T08:40:42.666Z,15.32
2017-09-26T08:43:11.101Z,15.41
2017-09-26T08:45:40.323Z,15.49
2017-09-26T08:48:08.746Z,15.75
2017-09-26T08:50:37.204Z,15.59
2017-09-26T08:53:05.635Z,15.63
2017-09-26T08:55:34.095Z,15.54
2017-09-26T08:58:02.634Z,15.57
2017-09-26T09:00:31.084Z,15.47
2017-09-26T09:03:00.319Z,15.54
2017-09-26T09:05:28.776Z,15.61
2017-09-26T09:07:57.971Z,15.67
2017-09-26T09:10:27.190Z,15.65
2017-09-26T09:12:55.711Z,15.82
2017-09-26T09:15:24.263Z,15.75
2017-09-26T09:17:52.686Z,15.65
2017-09-26T09:20:21.231Z,15.59
2017-09-26T09:22:49.667Z,15.40
2017-09-26T09:25:18.100Z,15.42
2017-09-26T09:27:46.567Z,15.37
2017-09-26T09:30:14.992Z,15.39
2017-09-26T09:32:43.450Z,15.41
2017-09-26T09:35:11.927Z,15.31
2017-09-26T09:37:40.387Z,15.27
2017-09-26T09:40:08.816Z,15.42
2017-09-26T09:42:37.266Z,15.29
2017-09-26T09:45:05.708Z,15.47
2017-09-26T09:47:34.932Z,15.48
2017-09-26T09:50:03.354Z,15.51
2017-09-26T09:52:31.914Z,15.64
2017-09-26T09:55:00.355Z,15.68
2017-09-26T09:57:29.692Z,15.88
2017-09-26T09:59:58.121Z,15.91
2017-09-26T10:02:26.560Z,15.83
2017-09-26T10:04:55.022Z,15.80
2017-09-26T10:07:23.511Z,15.91
2017-09-26T10:09:51.958Z,15.93
2017-09-26T10:12:20.385Z,16.02
2017-09-26T10:14:48.840Z,16.19
2017-09-26T10:17:18.055Z,16.13
2017-09-26T10:19:46.502Z,16.21
2017-09-26T10:22:15.735Z,16.33
2017-09-26T10:24:44.202Z,16.44
2017-09-26T10:27:13.400Z,16.30
2017-09-26T10:29:42.724Z,16.49
2017-09-26T10:32:11.168Z,16.37
2017-09-26T10:34:40.403Z,16.59
2017-09-26T10:37:08.888Z,16.81
2017-09-26T10:39:37.340Z,16.90
2017-09-26T10:42:06.561Z,17.05
2017-09-26T10:44:34.996Z,17.33
2017-09-26T10:47:03.522Z,17.11
2017-09-26T10:49:32.021Z,17.05
2017-09-26T10:52:00.480Z,17.17
2017-09-26T10:54:28.966Z,17.12
2017-09-26T10:56:57.410Z,17.14
2017-09-26T10:59:25.949Z,17.21
2017-09-26T11:01:54.399Z,17.19
2017-09-26T11:04:23.611Z,17.06
2017-09-26T11:06:52.085Z,16.88
2017-09-26T11:09:21.279Z,16.79
2017-09-26T11:11:50.477Z,16.69
2017-09-26T11:14:19.696Z,16.86
2017-09-26T11:16:48.137Z,16.79
2017-09-26T11:19:16.577Z,16.59
2017-09-26T11:21:45.012Z,16.72
2017-09-26T11:24:14.218Z,16.95
2017-09-26T11:26:43.407Z,16.93
2017-09-26T11:29:12.627Z,16.89
2017-09-26T11:31:41.119Z,17.03
2017-09-26T11:34:09.581Z,17.33
2017-09-26T11:36:38.776Z,17.14
2017-09-26T11:39:07.988Z,17.14
2017-09-26T11:41:36.444Z,17.23
2017-09-26T11:44:05.644Z,17.35
2017-09-26T11:46:34.869Z,17.44
2017-09-26T11:49:03.299Z,17.12
2017-09-26T11:51:31.749Z,16.93
2017-09-26T11:54:00.184Z,17.00
2017-09-26T11:56:28.631Z,17.05
2017-09-26T11:58:57.059Z,17.15
2017-09-26T12:01:26.297Z,17.05
2017-09-26T12:03:54.767Z,17.06
2017-09-26T12:06:23.256Z,17.13
2017-09-26T12:08:51.712Z,17.09
2017-09-26T12:11:20.909Z,17.19
2017-09-26T12:13:55.648Z,17.22
2017-09-26T12:16:24.136Z,17.25
2017-09-26T12:18:52.588Z,17.35
2017-09-26T12:21:21.782Z,17.28
2017-09-26T12:23:50.234Z,17.15
2017-09-26T12:26:18.779Z,17.18
2017-09-26T12:28:47.258Z,17.42
2017-09-26T12:31:15.687Z,17.37
2017-09-26T12:33:44.144Z,17.50
2017-09-26T12:36:12.611Z,17.60
2017-09-26T12:38:41.068Z,17.50
2017-09-26T12:41:10.263Z,17.53
2017-09-26T12:43:39.485Z,17.38
2017-09-26T12:46:07.916Z,17.43
2017-09-26T12:48:36.456Z,17.41
2017-09-26T12:51:04.939Z,17.30
2017-09-26T12:53:33.382Z,17.21
2017-09-26T12:56:02.620Z,17.09
2017-09-26T12:58:31.113Z,17.21
2017-09-26T13:00:59.579Z,17.01
2017-09-26T13:03:28.059Z,16.98
2017-09-26T13:05:56.520Z,16.98
2017-09-26T13:08:25.710Z,17.02
2017-09-26T13:10:54.944Z,16.94
2017-09-26T13:13:23.408Z,16.85
2017-09-26T13:15:52.728Z,16.82
2017-09-26T13:18:21.177Z,16.78
2017-09-26T13:20:50.404Z,16.74
2017-09-26T13:23:18.831Z,16.74
2017-09-26T13:25:47.270Z,16.82
2017-09-26T13:28:15.753Z,16.76
2017-09-26T13:30:44.203Z,16.68
2017-09-26T13:33:13.452Z,16.62
2017-09-26T13:35:42.011Z,16.60
2017-09-26T13:38:10.490Z,16.62
2017-09-26T13:40:38.924Z,16.64
2017-09-26T13:43:07.375Z,16.57
2017-09-26T13:45:35.807Z,16.50
2017-09-26T13:48:05.039Z,16.42
2017-09-26T13:50:33.472Z,16.33
2017-09-26T13:53:01.923Z,16.37
2017-09-26T13:55:30.361Z,16.39
2017-09-26T13:57:59.584Z,16.40
2017-09-26T14:00:28.019Z,16.46
2017-09-26T14:02:56.627Z,16.46
2017-09-26T14:05:25.820Z,16.40
2017-09-26T14:07:55.036Z,16.49
2017-09-26T14:10:23.523Z,16.51
2017-09-26T14:12:52.004Z,16.54
2017-09-26T14:15:20.426Z,16.53
2017-09-26T14:17:48.867Z,16.41
2017-09-26T14:20:17.325Z,16.35
2017-09-26T14:22:46.523Z,16.40
2017-09-26T14:25:15.741Z,16.40
2017-09-26T14:27:44.248Z,16.44
2017-09-26T14:30:12.696Z,16.61
2017-09-26T14:32:41.894Z,16.73
2017-09-26T14:35:11.114Z,16.61
2017-09-26T14:37:39.615Z,16.72
2017-09-26T14:40:08.064Z,16.65
2017-09-26T14:42:36.496Z,16.58
2017-09-26T14:45:04.952Z,16.58
2017-09-26T14:47:33.383Z,16.59
2017-09-26T14:50:02.603Z,16.66
2017-09-26T14:52:31.806Z,16.61
2017-09-26T14:55:00.254Z,16.61
2017-09-26T14:57:30.229Z,16.62
2017-09-26T14:59:58.796Z,16.64
2017-09-26T15:02:27.226Z,16.62
2017-09-26T15:04:55.763Z,16.61
2017-09-26T15:07:24.254Z,16.55
2017-09-26T15:09:52.724Z,16.55
2017-09-26T15:12:21.177Z,16.56
2017-09-26T15:14:50.372Z,16.52
2017-09-26T15:17:20.210Z,16.48
2017-09-26T15:19:48.652Z,16.57
2017-09-26T15:22:17.103Z,16.57
2017-09-26T15:24:45.531Z,16.61
2017-09-26T15:27:14.751Z,16.52
2017-09-26T15:29:43.244Z,16.57
2017-09-26T15:32:11.696Z,16.53
2017-09-26T15:34:40.924Z,16.53
2017-09-26T15:37:09.372Z,16.55
2017-09-26T15:39:38.598Z,16.67
2017-09-26T15:42:07.087Z,16.65
2017-09-26T15:44:35.576Z,16.62
2017-09-26T15:47:04.028Z,16.61
2017-09-26T15:49:33.256Z,16.64
2017-09-26T15:52:01.731Z,16.62
2017-09-26T15:54:30.164Z,16.53
2017-09-26T15:56:58.643Z,16.52
2017-09-26T15:59:27.073Z,16.54
2017-09-26T16:01:55.559Z,16.59
2017-09-26T16:04:24.050Z,16.52
2017-09-26T16:06:52.484Z,16.52
2017-09-26T16:09:21.713Z,16.55
2017-09-26T16:11:50.152Z,16.53
2017-09-26T16:14:18.606Z,16.41
2017-09-26T16:16:47.030Z,16.36
2017-09-26T16:19:16.252Z,16.30
2017-09-26T16:21:45.603Z,16.26
2017-09-26T16:24:14.061Z,16.23
2017-09-26T16:26:42.501Z,16.16
2017-09-26T16:29:11.736Z,16.13
2017-09-26T16:31:40.173Z,16.09
2017-09-26T16:34:09.423Z,16.06
2017-09-26T16:36:37.847Z,15.98
2017-09-26T16:39:06.372Z,15.97
2017-09-26T16:41:34.974Z,15.94
2017-09-26T16:44:03.402Z,15.89
2017-09-26T16:46:32.628Z,15.89
2017-09-26T16:49:01.086Z,15.79
2017-09-26T16:51:30.419Z,15.76
2017-09-26T16:53:58.847Z,15.76
2017-09-26T16:56:27.297Z,15.68
2017-09-26T16:58:55.732Z,15.63
2017-09-26T17:01:24.968Z,15.54
2017-09-26T17:03:53.395Z,15.54
2017-09-26T17:06:21.856Z,15.51
2017-09-26T17:08:50.297Z,15.49
2017-09-26T17:11:18.754Z,15.52
2017-09-26T17:13:47.956Z,15.54
2017-09-26T17:16:17.180Z,15.54
2017-09-26T17:18:45.671Z,15.48
2017-09-26T17:21:14.155Z,15.47
2017-09-26T17:23:42.630Z,15.43
2017-09-26T17:26:11.059Z,15.41
2017-09-26T17:28:39.518Z,15.44
2017-09-26T17:31:07.976Z,15.39
2017-09-26T17:33:36.431Z,15.33
2017-09-26T17:36:05.660Z,15.33
2017-09-26T17:38:34.144Z,15.36
2017-09-26T17:41:02.572Z,15.30
2017-09-26T17:43:31.028Z,15.26
2017-09-26T17:45:59.463Z,15.21
2017-09-26T17:48:28.784Z,15.23
2017-09-26T17:50:57.224Z,15.16
2017-09-26T17:53:25.740Z,15.13
2017-09-26T17:55:54.169Z,15.10
2017-09-26T17:58:22.715Z,15.08
2017-09-26T18:00:51.209Z,15.07
2017-09-26T18:03:19.664Z,15.05
2017-09-26T18:05:48.099Z,15.03
2017-09-26T18:08:16.559Z,15.02
2017-09-26T18:10:45.015Z,15.01
2017-09-26T18:13:13.484Z,14.99
2017-09-26T18:15:42.674Z,14.99
2017-09-26T18:18:11.872Z,14.97
2017-09-26T18:20:41.087Z,14.91
2017-09-26T18:23:09.521Z,14.93
2017-09-26T18:25:38.060Z,14.87
2017-09-26T18:28:06.548Z,14.85
2017-09-26T18:30:35.024Z,14.81
2017-09-26T18:33:03.454Z,14.78
2017-09-26T18:35:31.907Z,14.75
2017-09-26T18:38:00.341Z,14.73
2017-09-26T18:40:29.680Z,14.67
2017-09-26T18:42:58.116Z,14.60
2017-09-26T18:45:26.576Z,14.56
2017-09-26T18:47:55.116Z,14.57
2017-09-26T18:50:23.700Z,14.51
2017-09-26T18:52:52.131Z,14.45
2017-09-26T18:55:20.559Z,14.46
2017-09-26T18:57:49.043Z,14.39
2017-09-26T19:00:17.475Z,14.35
2017-09-26T19:02:45.936Z,14.32
2017-09-26T19:05:14.385Z,14.30
2017-09-26T19:07:42.876Z,14.26
2017-09-26T19:10:11.314Z,14.23
2017-09-26T19:12:40.551Z,14.20
2017-09-26T19:15:08.980Z,14.15
2017-09-26T19:17:37.431Z,14.15
2017-09-26T19:20:06.320Z,14.15
2017-09-26T19:22:35.799Z,14.04
2017-09-26T19:25:04.227Z,13.99
2017-09-26T19:27:32.681Z,13.96
2017-09-26T19:30:01.120Z,13.93
2017-09-26T19:32:30.455Z,13.92
2017-09-26T19:34:58.934Z,13.91
2017-09-26T19:37:27.364Z,13.88
2017-09-26T19:39:55.814Z,13.88
2017-09-26T19:42:24.251Z,13.88
2017-09-26T19:44:54.195Z,13.85
2017-09-26T19:47:22.631Z,13.86
2017-09-26T19:49:51.846Z,13.84
2017-09-26T19:52:21.047Z,13.73
2017-09-26T19:54:50.268Z,13.63
2017-09-26T19:57:18.705Z,13.61
2017-09-26T19:59:47.147Z,13.59
2017-09-26T20:02:15.575Z,13.58
2017-09-26T20:04:44.041Z,13.54
2017-09-26T20:07:12.476Z,13.55
2017-09-26T20:09:40.928Z,13.51
2017-09-26T20:12:10.159Z,13.51
2017-09-26T20:14:38.647Z,13.53
2017-09-26T20:17:07.123Z,13.55
2017-09-26T20:19:35.609Z,13.56
2017-09-26T20:22:04.487Z,13.55
2017-09-26T20:24:32.979Z,13.49
2017-09-26T20:27:01.432Z,13.50
2017-09-26T20:29:30.637Z,13.52
2017-09-26T20:31:59.960Z,13.50
2017-09-26T20:34:28.442Z,13.50
2017-09-26T20:36:56.895Z,13.49
2017-09-26T20:39:26.097Z,13.48
2017-09-26T20:41:55.315Z,13.50
2017-09-26T20:44:23.748Z,13.51
2017-09-26T20:46:52.293Z,13.49
2017-09-26T20:49:20.735Z,13.51
2017-09-26T20:51:49.946Z,13.48
2017-09-26T20:54:19.138Z,13.46
2017-09-26T20:56:48.361Z,13.42
2017-09-26T20:59:16.852Z,13.44
2017-09-26T21:01:45.318Z,13.48
2017-09-26T21:04:13.828Z,13.49
2017-09-26T21:06:42.255Z,13.48
2017-09-26T21:09:10.807Z,13.48
2017-09-26T21:11:39.234Z,13.52
2017-09-26T21:14:08.452Z,13.55
2017-09-26T21:16:36.929Z,13.53
2017-09-26T21:19:05.372Z,13.55
2017-09-26T21:21:33.899Z,13.57
2017-09-26T21:24:02.388Z,13.63
2017-09-26T21:26:30.815Z,13.64
2017-09-26T21:28:59.269Z,13.67
2017-09-26T21:31:27.708Z,13.69
2017-09-26T21:33:56.196Z,13.69
2017-09-26T21:36:24.696Z,13.72
2017-09-26T21:38:53.130Z,13.75
2017-09-26T21:41:21.662Z,13.74
2017-09-26T21:43:50.104Z,13.75
2017-09-26T21:46:19.431Z,13.74
2017-09-26T21:48:47.928Z,13.78
2017-09-26T21:51:16.407Z,13.74
2017-09-26T21:53:44.842Z,13.76
2017-09-26T21:56:13.307Z,13.73
2017-09-26T21:58:41.748Z,13.76
2017-09-26T22:01:10.200Z,13.77
2017-09-26T22:03:39.428Z,13.80
2017-09-26T22:06:07.899Z,13.73
2017-09-26T22:08:36.330Z,13.73
2017-09-26T22:11:04.871Z,13.68
2017-09-26T22:13:33.324Z,13.66
2017-09-26T22:16:02.519Z,13.67
2017-09-26T22:18:31.742Z,13.66
2017-09-26T22:21:00.167Z,13.64
2017-09-26T22:23:28.720Z,13.63
2017-09-26T22:25:57.156Z,13.66
2017-09-26T22:28:27.120Z,13.71
2017-09-26T22:30:55.610Z,13.68
2017-09-26T22:33:24.072Z,13.73
2017-09-26T22:35:52.507Z,13.73
2017-09-26T22:38:20.964Z,13.79
2017-09-26T22:40:49.428Z,13.73
2017-09-26T22:43:17.899Z,13.75
2017-09-26T22:45:46.336Z,13.68
2017-09-26T22:48:14.767Z,13.63
2017-09-26T22:50:43.224Z,13.63
2017-09-26T22:53:12.448Z,13.64
2017-09-26T22:55:40.931Z,13.55
2017-09-26T22:58:09.370Z,13.59
2017-09-26T23:00:37.822Z,13.55
2017-09-26T23:03:06.285Z,13.63
2017-09-26T23:05:34.740Z,13.58
2017-09-26T23:08:03.934Z,13.58
2017-09-26T23:10:33.176Z,13.56
2017-09-26T23:13:01.603Z,13.54
2017-09-26T23:15:30.808Z,13.52
2017-09-26T23:18:00.032Z,13.51
2017-09-26T23:20:28.459Z,13.48
2017-09-26T23:22:56.916Z,13.49
2017-09-26T23:25:25.386Z,13.48
2017-09-26T23:27:53.838Z,13.45
2017-09-26T23:30:23.026Z,13.47
2017-09-26T23:32:54.710Z,13.45
2017-09-26T23:35:23.200Z,13.43
2017-09-26T23:37:51.676Z,13.40
2017-09-26T23:40:20.117Z,13.38
2017-09-26T23:42:48.555Z,13.36
2017-09-26T23:45:17.014Z,13.36
2017-09-26T23:47:45.452Z,13.37
2017-09-26T23:50:13.907Z,13.30
2017-09-26T23:52:42.362Z,13.30
2017-09-26T23:55:10.840Z,13.33
2017-09-26T23:57:39.267Z,13.31
